createdAt,value
2022-07-29T00:02:03.079Z,101489.84
2022-07-29T00:04:48.610Z,101487.41
2022-07-29T00:07:34.066Z,101497.13
2022-07-29T00:10:19.657Z,101491.09
2022-07-29T00:13:05.284Z,101498.25
2022-07-29T00:15:50.669Z,101498.44
2022-07-29T00:18:36.481Z,101493.28
2022-07-29T00:21:22.199Z,101491.59
2022-07-29T00:24:07.846Z,101496.81
2022-07-29T00:26:53.688Z,101504.63
2022-07-29T00:29:39.359Z,101502.06
2022-07-29T00:32:25.053Z,101495.19
2022-07-29T00:35:29.366Z,101498.69
2022-07-29T00:38:17.071Z,101498.66
2022-07-29T00:41:02.455Z,101502.19
2022-07-29T00:43:47.761Z,101498.78
2022-07-29T00:46:33.253Z,101494.47
2022-07-29T00:49:19.186Z,101496.25
2022-07-29T00:52:09.916Z,101496.31
2022-07-29T00:54:55.316Z,101491.16
2022-07-29T00:57:42.616Z,101491.16
2022-07-29T01:00:30.474Z,101482.47
2022-07-29T01:03:16.208Z,101485.97
2022-07-29T01:06:01.872Z,101483.38
2022-07-29T01:08:49.552Z,101480.75
2022-07-29T01:11:35.170Z,101481.66
2022-07-29T01:14:25.068Z,101475.56
2022-07-29T01:17:53.653Z,101472.09
2022-07-29T01:21:10.050Z,101473.84
2022-07-29T01:23:58.341Z,101472.09
2022-07-29T01:26:54.736Z,101472.09
2022-07-29T01:29:45.061Z,101466.84
2022-07-29T01:32:37.238Z,101466.88
2022-07-29T01:35:43.880Z,101469.50
2022-07-29T01:38:30.014Z,101476.44
2022-07-29T01:41:20.728Z,101477.34
2022-07-29T01:44:14.988Z,101479.97
2022-07-29T01:47:13.745Z,101473.84
2022-07-29T01:50:01.386Z,101469.47
2022-07-29T01:52:57.246Z,101469.47
2022-07-29T01:55:45.916Z,101478.22
2022-07-29T01:58:33.366Z,101465.13
2022-07-29T02:01:20.119Z,101472.97
2022-07-29T02:04:10.883Z,101471.22
2022-07-29T02:07:01.586Z,101471.22
2022-07-29T02:09:48.563Z,101469.50
2022-07-29T02:12:36.758Z,101484.31
2022-07-29T02:15:24.346Z,101482.56
2022-07-29T02:18:15.626Z,101478.16
2022-07-29T02:21:02.675Z,101483.41
2022-07-29T02:23:51.113Z,101478.16
2022-07-29T02:26:38.590Z,101482.53
2022-07-29T02:29:27.450Z,101485.16
2022-07-29T02:32:16.444Z,101484.28
2022-07-29T02:35:03.514Z,101483.41
2022-07-29T02:38:08.927Z,101485.16
2022-07-29T02:40:56.400Z,101484.28
2022-07-29T02:43:44.467Z,101487.75
2022-07-29T02:46:36.809Z,101482.53
2022-07-29T02:49:22.709Z,101483.38
2022-07-29T02:52:19.950Z,101472.88
2022-07-29T02:55:19.304Z,101474.66
2022-07-29T02:58:13.461Z,101469.38
2022-07-29T03:01:03.390Z,101468.53
2022-07-29T03:03:50.423Z,101475.53
2022-07-29T03:06:39.057Z,101469.41
2022-07-29T03:09:26.540Z,101470.31
2022-07-29T03:12:15.058Z,101473.78
2022-07-29T03:15:02.391Z,101477.28
2022-07-29T03:17:48.695Z,101479.00
2022-07-29T03:20:34.994Z,101488.63
2022-07-29T03:23:22.663Z,101479.00
2022-07-29T03:26:08.091Z,101482.53
2022-07-29T03:28:53.415Z,101486.00
2022-07-29T03:31:39.234Z,101486.00
2022-07-29T03:34:29.186Z,101486.88
2022-07-29T03:37:14.461Z,101489.50
2022-07-29T03:40:01.435Z,101491.25
2022-07-29T03:42:48.075Z,101496.50
2022-07-29T03:45:35.234Z,101499.97
2022-07-29T03:48:23.312Z,101504.34
2022-07-29T03:51:09.165Z,101498.25
2022-07-29T03:53:54.931Z,101495.63
2022-07-29T03:56:47.281Z,101499.09
2022-07-29T03:59:34.916Z,101493.88
2022-07-29T04:02:26.216Z,101500.84
2022-07-29T04:05:15.533Z,101504.34
2022-07-29T04:08:01.337Z,101513.09
2022-07-29T04:10:48.537Z,101516.59
2022-07-29T04:13:34.133Z,101515.72
2022-07-29T04:16:19.631Z,101507.84
2022-07-29T04:19:05.420Z,101507.84
2022-07-29T04:21:51.148Z,101508.75
2022-07-29T04:24:36.470Z,101505.22
2022-07-29T04:27:22.069Z,101512.25
2022-07-29T04:30:08.269Z,101520.09
2022-07-29T04:32:53.921Z,101519.22
2022-07-29T04:35:45.791Z,101515.72
2022-07-29T04:38:35.847Z,101528.81
2022-07-29T04:41:21.382Z,101522.72
2022-07-29T04:44:07.423Z,101520.97
2022-07-29T04:46:54.039Z,101516.63
2022-07-29T04:49:40.072Z,101518.31
2022-07-29T04:52:25.703Z,101513.13
2022-07-29T04:55:11.070Z,101518.34
2022-07-29T04:57:56.354Z,101515.72
2022-07-29T05:00:42.023Z,101521.88
2022-07-29T05:03:27.773Z,101520.97
2022-07-29T05:06:13.437Z,101513.09
2022-07-29T05:08:58.896Z,101514.84
2022-07-29T05:11:44.197Z,101514.88
2022-07-29T05:14:29.525Z,101510.50
2022-07-29T05:17:15.081Z,101507.00
2022-07-29T05:20:00.459Z,101512.25
2022-07-29T05:22:45.946Z,101513.13
2022-07-29T05:25:43.109Z,101525.34
2022-07-29T05:28:30.186Z,101520.09
2022-07-29T05:31:15.894Z,101520.97
2022-07-29T05:34:01.578Z,101523.59
2022-07-29T05:36:47.530Z,101520.06
2022-07-29T05:39:48.740Z,101521.78
2022-07-29T05:42:36.135Z,101524.41
2022-07-29T05:45:21.728Z,101527.03
2022-07-29T05:48:07.025Z,101522.63
2022-07-29T05:50:54.182Z,101529.59
2022-07-29T05:53:39.800Z,101533.09
2022-07-29T05:56:25.926Z,101536.56
2022-07-29T05:59:15.558Z,101539.19
2022-07-29T06:02:06.284Z,101533.06
2022-07-29T06:04:52.065Z,101522.53
2022-07-29T06:07:37.744Z,101527.78
2022-07-29T06:10:27.030Z,101523.41
2022-07-29T06:13:13.290Z,101529.50
2022-07-29T06:15:59.388Z,101526.84
2022-07-29T06:18:45.126Z,101536.44
2022-07-29T06:21:30.546Z,101528.50
2022-07-29T06:24:17.158Z,101529.38
2022-07-29T06:27:02.960Z,101524.06
2022-07-29T06:29:48.408Z,101527.50
2022-07-29T06:32:34.719Z,101526.63
2022-07-29T06:35:41.118Z,101536.19
2022-07-29T06:38:33.833Z,101530.00
2022-07-29T06:41:19.705Z,101538.69
2022-07-29T06:44:05.788Z,101522.91
2022-07-29T06:46:52.716Z,101523.78
2022-07-29T06:49:38.033Z,101524.59
2022-07-29T06:52:23.457Z,101534.16
2022-07-29T06:55:09.542Z,101530.56
2022-07-29T06:57:55.149Z,101526.13
2022-07-29T07:00:40.483Z,101529.56
2022-07-29T07:03:26.374Z,101525.88
2022-07-29T07:06:15.116Z,101530.19
2022-07-29T07:09:00.979Z,101519.53
2022-07-29T07:11:46.391Z,101525.59
2022-07-29T07:14:35.316Z,101521.06
2022-07-29T07:17:20.905Z,101520.06
2022-07-29T07:20:07.391Z,101522.56
2022-07-29T07:22:54.466Z,101517.13
2022-07-29T07:25:39.822Z,101521.34
2022-07-29T07:28:25.326Z,101524.69
2022-07-29T07:31:12.209Z,101517.56
2022-07-29T07:33:57.530Z,101521.75
2022-07-29T07:36:43.337Z,101521.53
2022-07-29T07:39:28.706Z,101522.34
2022-07-29T07:42:14.115Z,101521.31
2022-07-29T07:45:13.125Z,101522.88
2022-07-29T07:47:59.921Z,101523.63
2022-07-29T07:50:45.719Z,101532.28
2022-07-29T07:53:31.776Z,101538.25
2022-07-29T07:56:18.060Z,101524.06
2022-07-29T07:59:03.679Z,101522.16
2022-07-29T08:01:55.560Z,101525.47
2022-07-29T08:04:41.972Z,101527.94
2022-07-29T08:07:28.086Z,101529.38
2022-07-29T08:10:16.009Z,101530.84
2022-07-29T08:13:07.896Z,101529.78
2022-07-29T08:16:00.096Z,101527.03
2022-07-29T08:18:47.253Z,101523.28
2022-07-29T08:21:32.798Z,101522.38
2022-07-29T08:24:36.674Z,101513.41
2022-07-29T08:27:42.399Z,101511.41
2022-07-29T08:30:28.797Z,101505.00
2022-07-29T08:33:13.989Z,101501.28
2022-07-29T08:35:59.683Z,101502.09
2022-07-29T08:38:45.404Z,101497.66
2022-07-29T08:41:31.104Z,101505.34
2022-07-29T08:44:30.425Z,101503.56
2022-07-29T08:47:16.845Z,101498.22
2022-07-29T08:50:02.187Z,101481.59
2022-07-29T08:52:50.243Z,101479.16
2022-07-29T08:55:36.405Z,101482.88
2022-07-29T08:58:23.179Z,101491.03
2022-07-29T09:01:12.429Z,101486.81
2022-07-29T09:04:02.263Z,101499.22
2022-07-29T09:06:52.495Z,101495.81
2022-07-29T09:09:40.959Z,101485.41
2022-07-29T09:12:28.816Z,101485.47
2022-07-29T09:15:15.840Z,101496.06
2022-07-29T09:18:01.756Z,101492.56
2022-07-29T09:21:11.914Z,101487.34
2022-07-29T09:24:02.254Z,101485.66
2022-07-29T09:26:47.960Z,101481.34
2022-07-29T09:29:36.335Z,101483.09
2022-07-29T09:32:21.831Z,101488.19
2022-07-29T09:35:22.183Z,101495.81
2022-07-29T09:38:16.712Z,101500.69
2022-07-29T09:41:05.746Z,101495.88
2022-07-29T09:43:59.470Z,101490.13
2022-07-29T09:46:58.937Z,101485.84
2022-07-29T09:49:55.822Z,101479.88
2022-07-29T09:52:50.461Z,101482.81
2022-07-29T09:55:48.548Z,101483.88
2022-07-29T09:58:35.047Z,101475.50
2022-07-29T10:01:29.514Z,101479.38
2022-07-29T10:04:15.231Z,101477.22
2022-07-29T10:07:05.255Z,101473.88
2022-07-29T10:09:55.603Z,101474.19
2022-07-29T10:12:56.464Z,101469.09
2022-07-29T10:15:46.323Z,101464.91
2022-07-29T10:18:33.464Z,101471.25
2022-07-29T10:21:35.012Z,101472.78
2022-07-29T10:24:22.462Z,101474.13
2022-07-29T10:27:10.098Z,101477.00
2022-07-29T10:29:55.639Z,101480.59
2022-07-29T10:33:17.802Z,101479.09
2022-07-29T10:36:08.701Z,101467.66
2022-07-29T10:39:44.704Z,101465.13
2022-07-29T10:42:41.475Z,101474.47
2022-07-29T10:45:27.192Z,101481.16
2022-07-29T10:48:13.663Z,101476.44
2022-07-29T10:51:06.883Z,101474.97
2022-07-29T10:53:54.165Z,101479.75
2022-07-29T10:56:41.424Z,101478.25
2022-07-29T10:59:36.341Z,101477.78
2022-07-29T11:02:42.758Z,101474.81
2022-07-29T11:05:40.679Z,101476.06
2022-07-29T11:08:27.861Z,101483.34
2022-07-29T11:11:33.395Z,101478.97
2022-07-29T11:15:02.728Z,101476.38
2022-07-29T11:17:54.752Z,101473.66
2022-07-29T11:20:42.559Z,101470.72
2022-07-29T11:23:42.882Z,101473.94
2022-07-29T11:26:28.560Z,101473.78
2022-07-29T11:29:21.789Z,101474.59
2022-07-29T11:32:18.454Z,101485.16
2022-07-29T11:35:37.481Z,101472.81
2022-07-29T11:38:23.394Z,101478.16
2022-07-29T11:41:28.130Z,101473.00
2022-07-29T11:44:13.536Z,101471.78
2022-07-29T11:47:05.057Z,101462.44
2022-07-29T11:49:53.192Z,101469.03
2022-07-29T11:52:49.478Z,101458.94
2022-07-29T11:55:38.605Z,101467.25
2022-07-29T11:58:38.465Z,101462.00
2022-07-29T12:01:25.613Z,101455.91
2022-07-29T12:04:13.912Z,101457.00
2022-07-29T12:07:00.636Z,101449.59
2022-07-29T12:09:53.621Z,101455.59
2022-07-29T12:12:42.947Z,101452.34
2022-07-29T12:15:31.506Z,101453.38
2022-07-29T12:18:32.025Z,101448.34
2022-07-29T12:21:17.404Z,101456.72
2022-07-29T12:24:08.779Z,101456.69
2022-07-29T12:26:58.897Z,101453.84
2022-07-29T12:29:48.806Z,101448.22
2022-07-29T12:32:34.991Z,101458.34
2022-07-29T12:35:22.196Z,101456.09
2022-07-29T12:38:10.190Z,101460.09
2022-07-29T12:40:56.340Z,101460.69
2022-07-29T12:43:54.769Z,101448.38
2022-07-29T12:46:40.271Z,101450.91
2022-07-29T12:49:25.627Z,101437.63
2022-07-29T12:52:33.875Z,101441.75
2022-07-29T12:55:42.235Z,101445.16
2022-07-29T12:58:31.739Z,101435.22
2022-07-29T13:01:20.598Z,101436.66
2022-07-29T13:04:05.978Z,101439.13
2022-07-29T13:06:59.805Z,101434.66
2022-07-29T13:09:48.858Z,101434.97
2022-07-29T13:12:34.409Z,101436.44
2022-07-29T13:15:19.673Z,101435.25
2022-07-29T13:18:05.671Z,101436.47
2022-07-29T13:20:51.654Z,101435.88
2022-07-29T13:23:38.285Z,101436.78
2022-07-29T13:26:24.238Z,101436.66
2022-07-29T13:29:10.438Z,101432.94
2022-07-29T13:31:56.489Z,101426.56
2022-07-29T13:34:42.314Z,101437.91
2022-07-29T13:37:30.605Z,101431.19
2022-07-29T13:40:16.720Z,101428.88
2022-07-29T13:43:02.262Z,101418.41
2022-07-29T13:45:47.945Z,101418.19
2022-07-29T13:48:33.413Z,101415.25
2022-07-29T13:51:18.772Z,101412.31
2022-07-29T13:54:04.665Z,101401.28
2022-07-29T13:56:51.532Z,101405.56
2022-07-29T13:59:37.189Z,101396.94
2022-07-29T14:02:25.737Z,101404.72
2022-07-29T14:05:11.891Z,101402.53
2022-07-29T14:07:57.417Z,101392.91
2022-07-29T14:10:42.907Z,101401.75
2022-07-29T14:13:28.344Z,101399.72
2022-07-29T14:16:15.248Z,101405.75
2022-07-29T14:19:01.113Z,101397.69
2022-07-29T14:21:46.539Z,101403.94
2022-07-29T14:24:32.637Z,101396.00
2022-07-29T14:27:37.479Z,101401.09
2022-07-29T14:30:23.782Z,101391.94
2022-07-29T14:33:09.169Z,101391.81
2022-07-29T14:35:54.662Z,101397.41
2022-07-29T14:38:46.685Z,101401.50
2022-07-29T14:41:33.233Z,101397.13
2022-07-29T14:44:19.452Z,101398.78
2022-07-29T14:47:07.822Z,101390.34
2022-07-29T14:49:53.932Z,101398.66
2022-07-29T14:52:39.834Z,101393.41
2022-07-29T14:55:25.454Z,101392.84
2022-07-29T14:58:16.035Z,101393.88
2022-07-29T15:01:02.163Z,101387.16
2022-07-29T15:03:47.680Z,101393.44
2022-07-29T15:06:32.917Z,101391.22
2022-07-29T15:09:18.151Z,101383.28
2022-07-29T15:12:04.095Z,101397.84
2022-07-29T15:14:49.610Z,101399.47
2022-07-29T15:17:35.273Z,101392.69
2022-07-29T15:20:22.504Z,101377.72
2022-07-29T15:23:10.559Z,101394.47
2022-07-29T15:25:56.149Z,101380.72
2022-07-29T15:28:41.578Z,101372.94
2022-07-29T15:31:27.117Z,101374.72
2022-07-29T15:34:12.502Z,101368.69
2022-07-29T15:36:57.902Z,101365.13
2022-07-29T15:39:43.328Z,101360.50
2022-07-29T15:42:28.777Z,101365.44
2022-07-29T15:45:14.173Z,101363.81
2022-07-29T15:47:59.647Z,101355.53
2022-07-29T15:50:47.124Z,101355.84
2022-07-29T15:53:35.317Z,101354.22
2022-07-29T15:56:22.046Z,101356.69
2022-07-29T15:59:07.992Z,101357.63
2022-07-29T16:01:54.376Z,101347.41
2022-07-29T16:04:41.832Z,101332.91
2022-07-29T16:07:31.269Z,101344.03
2022-07-29T16:10:17.813Z,101333.16
2022-07-29T16:13:03.481Z,101337.53
2022-07-29T16:16:02.299Z,101339.94
2022-07-29T16:18:48.834Z,101335.97
2022-07-29T16:21:35.320Z,101335.56
2022-07-29T16:24:21.176Z,101332.97
2022-07-29T16:27:07.071Z,101332.09
2022-07-29T16:29:53.610Z,101330.56
2022-07-29T16:32:40.450Z,101341.19
2022-07-29T16:35:26.302Z,101329.63
2022-07-29T16:38:25.435Z,101331.03
2022-07-29T16:41:10.930Z,101332.28
2022-07-29T16:43:56.565Z,101327.44
2022-07-29T16:46:44.927Z,101334.69
2022-07-29T16:49:31.288Z,101335.38
2022-07-29T16:52:16.830Z,101326.47
2022-07-29T16:55:02.698Z,101329.00
2022-07-29T16:57:48.096Z,101327.84
2022-07-29T17:00:33.412Z,101330.09
2022-07-29T17:03:19.846Z,101324.44
2022-07-29T17:06:05.351Z,101325.97
2022-07-29T17:08:50.611Z,101319.78
2022-07-29T17:11:54.078Z,101318.53
2022-07-29T17:14:40.351Z,101322.44
2022-07-29T17:17:38.435Z,101323.41
2022-07-29T17:20:27.111Z,101321.94
2022-07-29T17:23:12.802Z,101317.56
2022-07-29T17:25:59.156Z,101317.06
2022-07-29T17:28:49.118Z,101308.72
2022-07-29T17:31:34.835Z,101313.00
2022-07-29T17:34:24.362Z,101316.09
2022-07-29T17:37:11.406Z,101311.41
2022-07-29T17:40:00.319Z,101314.44
2022-07-29T17:42:46.064Z,101310.34
2022-07-29T17:45:48.812Z,101315.00
2022-07-29T17:48:36.757Z,101305.53
2022-07-29T17:51:26.690Z,101296.13
2022-07-29T17:54:12.234Z,101293.81
2022-07-29T17:56:58.195Z,101294.34
2022-07-29T17:59:43.938Z,101292.03
2022-07-29T18:02:29.424Z,101295.03
2022-07-29T18:05:15.959Z,101292.53
2022-07-29T18:08:01.811Z,101291.63
2022-07-29T18:10:48.256Z,101293.50
2022-07-29T18:13:34.114Z,101299.94
2022-07-29T18:16:20.012Z,101289.50
2022-07-29T18:19:05.931Z,101293.22
2022-07-29T18:21:54.675Z,101288.03
2022-07-29T18:24:42.301Z,101285.38
2022-07-29T18:27:28.310Z,101286.34
2022-07-29T18:30:15.328Z,101292.59
2022-07-29T18:33:20.372Z,101288.31
2022-07-29T18:36:11.394Z,101282.50
2022-07-29T18:38:57.302Z,101285.31
2022-07-29T18:41:49.800Z,101285.38
2022-07-29T18:44:43.503Z,101293.41
2022-07-29T18:47:32.197Z,101288.28
2022-07-29T18:50:19.441Z,101288.78
2022-07-29T18:53:05.076Z,101277.75
2022-07-29T18:55:50.593Z,101273.81
2022-07-29T18:58:38.348Z,101287.28
2022-07-29T19:01:24.302Z,101293.78
2022-07-29T19:04:18.197Z,101290.75
2022-07-29T19:07:03.679Z,101292.81
2022-07-29T19:09:49.452Z,101299.22
2022-07-29T19:12:35.572Z,101300.28
2022-07-29T19:15:21.042Z,101299.66
2022-07-29T19:18:07.219Z,101301.50
2022-07-29T19:20:53.809Z,101298.19
2022-07-29T19:24:01.713Z,101308.88
2022-07-29T19:26:48.256Z,101316.94
2022-07-29T19:29:35.048Z,101312.59
2022-07-29T19:32:24.902Z,101317.16
2022-07-29T19:35:28.199Z,101315.41
2022-07-29T19:38:14.099Z,101315.47
2022-07-29T19:40:59.826Z,101315.56
2022-07-29T19:43:51.271Z,101312.97
2022-07-29T19:46:38.256Z,101315.63
2022-07-29T19:49:23.933Z,101317.44
2022-07-29T19:52:09.748Z,101319.25
2022-07-29T19:54:55.345Z,101322.81
2022-07-29T19:57:41.544Z,101329.88
2022-07-29T20:00:27.784Z,101325.53
2022-07-29T20:03:13.381Z,101324.63
2022-07-29T20:06:00.145Z,101324.72
2022-07-29T20:08:45.761Z,101324.75
2022-07-29T20:11:32.421Z,101314.28
2022-07-29T20:14:17.903Z,101315.25
2022-07-29T20:17:04.458Z,101314.50
2022-07-29T20:19:51.202Z,101310.16
2022-07-29T20:22:37.315Z,101311.97
2022-07-29T20:25:23.847Z,101312.97
2022-07-29T20:28:09.309Z,101321.81
2022-07-29T20:30:54.814Z,101322.72
2022-07-29T20:33:39.952Z,101333.31
2022-07-29T20:36:25.704Z,101329.84
2022-07-29T20:39:11.305Z,101334.25
2022-07-29T20:41:56.844Z,101329.84
2022-07-29T20:44:42.391Z,101331.63
2022-07-29T20:47:28.100Z,101334.34
2022-07-29T20:50:13.446Z,101326.44
2022-07-29T20:52:58.902Z,101314.16
2022-07-29T20:55:44.600Z,101316.81
2022-07-29T20:58:30.362Z,101310.72
2022-07-29T21:01:16.499Z,101318.56
2022-07-29T21:04:03.136Z,101305.44
2022-07-29T21:06:48.491Z,101305.44
2022-07-29T21:09:34.119Z,101299.22
2022-07-29T21:12:19.797Z,101302.78
2022-07-29T21:15:06.751Z,101295.81
2022-07-29T21:18:00.042Z,101302.88
2022-07-29T21:20:45.660Z,101299.34
2022-07-29T21:23:31.774Z,101300.22
2022-07-29T21:26:17.326Z,101304.63
2022-07-29T21:29:02.676Z,101297.59
2022-07-29T21:31:48.014Z,101300.16
2022-07-29T21:34:33.615Z,101301.06
2022-07-29T21:37:19.306Z,101295.84
2022-07-29T21:40:06.959Z,101287.06
2022-07-29T21:42:52.540Z,101286.22
2022-07-29T21:45:38.007Z,101287.16
2022-07-29T21:48:26.747Z,101293.38
2022-07-29T21:51:12.220Z,101288.09
2022-07-29T21:53:57.621Z,101291.69
2022-07-29T21:56:43.488Z,101299.63
2022-07-29T21:59:36.783Z,101292.59
2022-07-29T22:02:22.409Z,101282.13
2022-07-29T22:05:08.882Z,101280.34
2022-07-29T22:07:56.875Z,101267.22
2022-07-29T22:10:42.322Z,101279.59
2022-07-29T22:13:27.661Z,101277.84
2022-07-29T22:16:15.141Z,101277.00
2022-07-29T22:19:00.847Z,101281.34
2022-07-29T22:21:47.280Z,101277.00
2022-07-29T22:24:32.784Z,101284.88
2022-07-29T22:27:18.119Z,101276.06
2022-07-29T22:30:05.200Z,101280.44
2022-07-29T22:32:50.809Z,101273.41
2022-07-29T22:35:36.265Z,101271.66
2022-07-29T22:38:21.715Z,101264.63
2022-07-29T22:41:07.074Z,101266.38
2022-07-29T22:43:54.034Z,101264.59
2022-07-29T22:46:41.549Z,101268.16
2022-07-29T22:49:26.850Z,101267.25
2022-07-29T22:52:12.788Z,101273.41
2022-07-29T22:55:00.411Z,101269.91
2022-07-29T22:57:45.868Z,101265.50
2022-07-29T23:00:31.472Z,101266.44
2022-07-29T23:03:17.084Z,101258.53
2022-07-29T23:06:02.944Z,101248.81
2022-07-29T23:08:48.583Z,101258.50
2022-07-29T23:11:34.007Z,101261.94
2022-07-29T23:14:19.493Z,101256.59
2022-07-29T23:17:05.544Z,101254.81
2022-07-29T23:19:51.300Z,101257.41
2022-07-29T23:22:37.744Z,101253.81
2022-07-29T23:25:23.321Z,101253.78
2022-07-29T23:28:13.303Z,101261.72
2022-07-29T23:30:59.131Z,101252.91
2022-07-29T23:33:44.408Z,101266.09
2022-07-29T23:36:30.064Z,101272.22
2022-07-29T23:39:15.604Z,101268.66
2022-07-29T23:42:00.906Z,101260.78
2022-07-29T23:44:46.277Z,101259.94
2022-07-29T23:47:31.697Z,101257.38
2022-07-29T23:50:17.482Z,101267.06
2022-07-29T23:53:03.113Z,101257.44
2022-07-29T23:55:48.487Z,101251.34
2022-07-29T23:58:34.033Z,101247.03
